XDE weather

Diebougou Airport
Diebougou, Bougouriba, Burkina Faso

Public forecast

Using degrees Celsius for public forecast. Weather courtesy of forecast.io.

METAR (pilot weather report)

Report is more than 6 hours old.

Closest report is Gaoua Airport, 34.4 nm (63.6 km) S. Retrieved 2009/09/21 17:00 UTC (10 years ago):

DFOG 211700Z 18004KT 9999 FEW020 FEW040CB NW NE BKN260 30/23

TAF (pilot weather forecast)

Closest forecast is Bobo Dioulasso Airport, 64.9 nm (120.3 km) WNW. Retrieved 2019/03/23 18:21 UTC (4 hours ago):

TAF DFOO 231700Z 2318/2418 03008KT 8000 NSC